CheckWX is a tool to help pilots better visualize weather data.  It is not intended as a substitute for an official pre-flight weather briefing.

03:55:57 UTC

EGGP METAR
Liverpool John Lennon Airport
Liverpool, United Kingdom
Current

36 mins ago

EGGP 150320Z AUTO 26008KT 230V290 2500 DZ BKN001/// OVC004/// 14/13 Q1014 RERA
Observed
Jul-15 @ 03:20 UTC
Wind
  • 260° at 8 KTS
Visibility
2494 meters
Flight Rules
LIFR
Conditions
Drizzle
Cloud Levels
  • Broken at 100' AGL
  • Overcast at 400' AGL
Temperature
14°C / 57°F
Dewpoint
13°C / 55°F
Humidity
94%
Altimeter
29.94" Hg
Pressure
1013.92 hPa
Previous

1 hour ago

EGGP 150250Z AUTO 22006KT 6000 RA OVC002/// 13/13 Q1014
Observed
Jul-15 @ 02:50 UTC
Wind
  • 220° at 6 KTS
Visibility
6003 meters
Flight Rules
LIFR
Conditions
Rain
Cloud Levels
  • Overcast at 200' AGL
Temperature
13°C / 55°F
Dewpoint
13°C / 55°F
Humidity
100%
Altimeter
29.94" Hg
Pressure
1013.92 hPa
Previous

2 hours ago

EGGP 150220Z AUTO 25006KT 6000 RA BKN002/// OVC016/// 13/13 Q1014 REDZ
Observed
Jul-15 @ 02:20 UTC
Wind
  • 250° at 6 KTS
Visibility
6003 meters
Flight Rules
LIFR
Conditions
Rain
Cloud Levels
  • Broken at 200' AGL
  • Overcast at 1,600' AGL
Temperature
13°C / 55°F
Dewpoint
13°C / 55°F
Humidity
100%
Altimeter
29.94" Hg
Pressure
1013.92 hPa